Aeroporto :
LOGIN :

Iscrizione | Disclaimer

   EN    FR    IT 

 










Sommario :    VFR   VFR Marginale   IFR   IFR Intensivo   IFR Molto Intensivo
Visibilità : 
Base nubi : 
>= 8 km
>= 3000ft
5 / 8 km
1000 / 3000 ft
1500m / 5 km
500 / 1000 ft
800 / 1500m
200 / 500 ft
< 800m
< 200 ft
Simboli :   Temporali  Nebbia  Neve Forte  Precipitazioni Forti  Vento > 20 kt
SIGMETs :   Varie  Temporali  Ghiacco  Turbolenza  Onda orograficha  Ceneri Vulcaniche






- Altitudine del aeroporto : 129 ft
- Codice IATA : ZCN


ETHC - Celle

ULTIMO METAR :
  • 121020Z 18011KT 9999 FEW030 SCT034 08/01 Q1003 BLU+BLU+ TEMPO BLU

METARs OBSOLETI :
  • 120920Z 17010KT 9999 FEW029 SCT035 07/01 Q1003 BLU+BLU+ TEMPO BLU
  • 120820Z 17007KT 9999 FEW027 BKN033 05/01 Q1003 BLU BLU

TAF TAF ETHC
Valido dal 12 a 09 ore il 12 a 18 ore UTC


120825Z 1209/1218 17010KT 9999 NSW SCT020 BKN030
PROB30 1212/1218 19015G25KT 8000 -SHRA BKN015



MetMap, La meteo Aeronautica in un colpo d'occhio ! - Copyright ORBIFLY Dicembre 2007 - Disclaimer

ORBIFLY MET'MAP TEAM :

Programmazione e sviluppo : Alexandra Zaïnal
Concezione e sviluppo : Baudouin d'Aumeries
Co-Programmazione e sviluppo : Marc-Olivier Méhu
Supporto tecnico e logistico : Manuel Goepfert
Aiuto per la traduzione : Arnaldo La Scala

Contatto : metmap@orbifly.com




FONTI E CREDITI :

   NOAA